Time;durP1;ratioP1;P1;durP2;ratioP2;P2;SDS_P1;SDS_P2;PMS_P1;PMS_P2;Temp;Humidity;BMP_temperature;BMP_pressure;BME280_temperature;BME280_humidity;BME280_pressure;Samples;Min_cycle;Max_cycle;Signal;HPM_P1;HPM_P2
2021/06/20 00:01:16;;;;;;;9.43;4.32;;;15.30;99.90;;;;;;21165105;28;20060;-44
2021/06/20 00:11:18;;;;;;;15.48;4.43;;;15.30;99.90;;;;;;21164780;28;20035;-50
2021/06/20 00:21:21;;;;;;;15.15;4.85;;;15.40;99.90;;;;;;21165139;28;20537;-45
2021/06/20 00:31:24;;;;;;;12.23;4.55;;;15.40;99.90;;;;;;21162740;28;20437;-44
2021/06/20 00:41:25;;;;;;;15.25;4.20;;;15.40;99.90;;;;;;21161394;28;20039;-48
2021/06/20 00:51:27;;;;;;;15.50;4.80;;;15.30;99.90;;;;;;21160960;28;20484;-49
2021/06/20 01:01:31;;;;;;;16.52;4.50;;;15.30;99.90;;;;;;21159473;28;20035;-44
2021/06/20 01:11:34;;;;;;;21.33;4.82;;;15.00;99.90;;;;;;21159385;28;20036;-49
2021/06/20 01:21:36;;;;;;;22.60;4.95;;;14.90;99.90;;;;;;21158317;28;20044;-47
2021/06/20 01:31:48;;;;;;;18.02;5.20;;;14.90;99.90;;;;;;21158005;28;20114;-45
2021/06/20 01:41:50;;;;;;;15.02;4.97;;;14.80;99.90;;;;;;21157541;28;20028;-47
2021/06/20 01:51:51;;;;;;;16.73;4.70;;;14.70;99.90;;;;;;21156679;28;20059;-45
2021/06/20 02:01:53;;;;;;;21.20;5.47;;;14.60;99.90;;;;;;21157423;28;20036;-44
2021/06/20 02:11:55;;;;;;;16.50;5.20;;;14.60;99.90;;;;;;21158165;28;20526;-44
2021/06/20 02:21:57;;;;;;;12.27;4.43;;;14.90;99.90;;;;;;21172722;28;20048;-44
2021/06/20 02:31:59;;;;;;;16.40;4.70;;;15.10;99.90;;;;;;21172159;28;20080;-45
2021/06/20 02:42:01;;;;;;;31.63;5.95;;;15.30;99.90;;;;;;21170899;28;20035;-45
2021/06/20 02:52:03;;;;;;;23.98;5.15;;;15.20;99.90;;;;;;21170068;28;20061;-48
2021/06/20 03:02:05;;;;;;;23.10;4.78;;;15.20;99.90;;;;;;21169381;28;20035;-44
2021/06/20 03:12:09;;;;;;;25.27;4.70;;;15.10;99.90;;;;;;21168532;28;20393;-44
2021/06/20 03:22:11;;;;;;;25.33;5.07;;;15.10;99.90;;;;;;21167184;28;20056;-49
2021/06/20 03:32:14;;;;;;;19.63;4.68;;;15.30;99.90;;;;;;21167218;28;20039;-48
2021/06/20 03:42:16;;;;;;;15.68;4.47;;;15.10;99.90;;;;;;21166285;28;20392;-48
2021/06/20 03:52:19;;;;;;;14.75;4.53;;;15.10;99.90;;;;;;21165593;28;20036;-49
2021/06/20 04:02:21;;;;;;;15.27;4.72;;;15.30;99.90;;;;;;21164690;28;20241;-44
2021/06/20 04:12:22;;;;;;;18.25;5.28;;;15.40;99.90;;;;;;21164253;28;20040;-45
2021/06/20 04:22:24;;;;;;;19.92;4.82;;;15.40;99.90;;;;;;21163792;28;20063;-44
2021/06/20 04:32:26;;;;;;;19.25;5.05;;;15.30;99.90;;;;;;21161982;28;20092;-50
2021/06/20 04:42:33;;;;;;;15.23;4.70;;;15.70;99.90;;;;;;21160939;28;20119;-49
2021/06/20 04:52:35;;;;;;;13.45;4.43;;;15.80;99.90;;;;;;21160500;28;20092;-44
2021/06/20 05:02:38;;;;;;;13.55;5.68;;;16.10;99.90;;;;;;21160255;28;20101;-48
2021/06/20 05:12:40;;;;;;;10.90;5.00;;;16.40;99.90;;;;;;21159248;28;20043;-46
2021/06/20 05:22:41;;;;;;;13.73;5.35;;;17.10;99.90;;;;;;21160684;28;20069;-45
2021/06/20 05:32:43;;;;;;;18.50;6.00;;;17.60;99.90;;;;;;21159927;28;20039;-50
2021/06/20 05:42:45;;;;;;;15.18;5.10;;;18.20;99.90;;;;;;21141623;28;20104;-46
2021/06/20 05:52:47;;;;;;;26.25;5.40;;;18.60;99.90;;;;;;21158514;28;20084;-45
2021/06/20 06:02:49;;;;;;;23.10;5.82;;;19.00;99.90;;;;;;21158181;28;20089;-47
2021/06/20 06:12:51;;;;;;;19.40;4.60;;;19.80;99.90;;;;;;21139610;28;20048;-45
2021/06/20 06:22:53;;;;;;;18.08;4.18;;;23.90;93.90;;;;;;21160345;28;20088;-45
2021/06/20 06:32:55;;;;;;;18.73;4.78;;;24.10;94.30;;;;;;21157575;28;20044;-46
2021/06/20 06:42:58;;;;;;;20.77;4.63;;;23.20;93.50;;;;;;21071326;28;20040;-46
2021/06/20 06:53:00;;;;;;;29.20;5.35;;;23.10;94.80;;;;;;21071287;28;20089;-45
2021/06/20 07:03:02;;;;;;;30.05;5.72;;;22.20;95.70;;;;;;21079873;28;20435;-45
2021/06/20 07:13:04;;;;;;;43.42;6.25;;;22.50;95.50;;;;;;21084904;28;20108;-46
2021/06/20 07:23:06;;;;;;;33.63;5.85;;;23.10;93.90;;;;;;21116358;28;20047;-47
2021/06/20 07:33:09;;;;;;;46.70;6.15;;;;;;;;;;21167227;28;20382;-45
2021/06/20 07:43:11;;;;;;;24.45;4.95;;;25.30;78.00;;;;;;21166504;28;20545;-46
2021/06/20 07:53:12;;;;;;;21.38;4.90;;;26.20;90.10;;;;;;21165633;28;20031;-45
2021/06/20 08:03:15;;;;;;;35.72;4.68;;;25.20;77.30;;;;;;21164254;28;20081;-45
2021/06/20 08:13:17;;;;;;;27.35;4.10;;;24.60;81.50;;;;;;21163182;28;20044;-44
2021/06/20 08:23:19;;;;;;;26.98;4.22;;;23.80;76.40;;;;;;21161619;28;20382;-49
2021/06/20 08:33:22;;;;;;;24.02;3.63;;;23.80;79.40;;;;;;21161391;28;20084;-44
2021/06/20 08:43:24;;;;;;;28.50;4.20;;;23.70;74.80;;;;;;21160508;28;20039;-45
2021/06/20 08:53:26;;;;;;;24.42;4.53;;;23.60;87.70;;;;;;21160212;28;20096;-46
2021/06/20 09:03:45;;;;;;;25.48;4.50;;;24.40;90.80;;;;;;21160393;28;20039;-44
2021/06/20 09:13:47;;;;;;;31.17;4.38;;;25.70;87.70;;;;;;21163986;28;20396;-45
2021/06/20 09:23:49;;;;;;;18.75;3.80;;;26.70;72.50;;;;;;21159779;28;20093;-48
2021/06/20 09:34:00;;;;;;;30.15;5.57;;;27.50;80.70;;;;;;21157301;28;20073;-48
2021/06/20 09:44:02;;;;;;;31.67;3.15;;;26.00;74.10;;;;;;21157202;28;20476;-45
2021/06/20 09:54:08;;;;;;;15.43;2.70;;;25.00;78.90;;;;;;21157176;28;20075;-48
2021/06/20 10:04:11;;;;;;;24.65;4.38;;;25.20;81.70;;;;;;21156901;28;20073;-50
2021/06/20 10:14:13;;;;;;;21.30;4.40;;;26.30;85.40;;;;;;21156370;28;20031;-51
